Airfield :
LOGIN :

Register | Disclaimer

   EN    FR    IT 

 










Legend :    VFR   Marginal VFR   IFR   Intensive IFR   Very Intensive IFR
Visi :
Ceiling :
>= 8 km
>= 3000ft
5 to 8 km
1000 to 3000 ft
1500m to 5 km
500 to 1000 ft
800 to 1500m
200 to 500 ft
< 800m
< 200 ft
Symbols :   Thunderstorms  Fog  Heavy snow  Heavy precipitations  Wind > 20 kt
SIGMETs :     Misc.  Thunderstorms  Icing  Turbulence  Mountain Waves  Volcanic Ashes







- Airport Elevation : 37 ft
- IATA code : FRO


ENFL - Florø

CURRENT METAR :
  • 221250Z 25004KT 180V290 6000 SCT002 BKN004 12/11 Q1008

EXPIRED METARs :
  • 221220Z 25007KT 9999 5000W FEW002 SCT006 BKN009 12/11 Q1008
  • 221150Z 25007KT 9999 5000W FEW002 SCT006 BKN013 12/11 Q1008
  • 221120Z 25006KT 210V270 9999 FEW003 SCT020 BKN040 13/11 Q1008
  • 221050Z 25007KT 9999 FEW002 SCT025 BKN040 13/12 Q1008
  • 221020Z 25008KT 9999 FEW002 SCT025 BKN040 12/11 Q1008

TAF TAF ENFL
Valid from the 22 at 12:00 until the 22 at 21:00 UTC


221100Z 2212/2221 25008KT 9000 -RA FEW002 SCT025 BKN040
TEMPO 2212/2218 2000 SHRA BR BKN004 SCT020CB
BECMG 2212/2214 19015KT
No reported NOTAMs for that airfield.



MET'MAP, your aeronautical weather chart ! - Copyright ORBIFLY December 2007 - Disclaimer

ORBIFLY MET'MAP TEAM :

Programming & Development : Alexandra Zaïnal
Concept & Development : Baudouin d'Aumeries
Co-Development & Prog : Marc-Olivier Méhu
Technical & hardware support : Manuel Goepfert

Contact : metmap@orbifly.com




SOURCES & CREDITS :

   NOAA